sensor_id;sensor_type;location;lat;lon;timestamp;pressure;altitude;pressure_sealevel;temperature;humidity
37856;BME280;23694;43.274;26.924;2022-08-07T00:01:36;98495.56;;;23.70;63.32
37856;BME280;23694;43.274;26.924;2022-08-07T00:04:03;98485.66;;;23.64;63.59
37856;BME280;23694;43.274;26.924;2022-08-07T00:06:29;98502.31;;;23.66;63.51
37856;BME280;23694;43.274;26.924;2022-08-07T00:08:55;98495.53;;;23.64;63.66
37856;BME280;23694;43.274;26.924;2022-08-07T00:11:21;98489.94;;;23.59;64.03
37856;BME280;23694;43.274;26.924;2022-08-07T00:13:47;98493.84;;;23.56;64.20
37856;BME280;23694;43.274;26.924;2022-08-07T00:16:13;98496.06;;;23.53;64.26
37856;BME280;23694;43.274;26.924;2022-08-07T00:18:40;98493.34;;;23.46;64.60
37856;BME280;23694;43.274;26.924;2022-08-07T00:21:08;98499.91;;;23.44;64.70
37856;BME280;23694;43.274;26.924;2022-08-07T00:23:37;98494.38;;;23.45;64.36
37856;BME280;23694;43.274;26.924;2022-08-07T00:26:05;98491.31;;;23.48;64.38
37856;BME280;23694;43.274;26.924;2022-08-07T00:28:32;98488.44;;;23.50;64.50
37856;BME280;23694;43.274;26.924;2022-08-07T00:30:59;98493.34;;;23.46;64.51
37856;BME280;23694;43.274;26.924;2022-08-07T00:33:25;98500.94;;;23.43;64.37
37856;BME280;23694;43.274;26.924;2022-08-07T00:35:54;98494.91;;;23.34;65.06
37856;BME280;23694;43.274;26.924;2022-08-07T00:38:21;98496.16;;;23.38;64.98
37856;BME280;23694;43.274;26.924;2022-08-07T00:40:47;98488.34;;;23.36;64.85
37856;BME280;23694;43.274;26.924;2022-08-07T00:43:13;98497.69;;;23.19;65.78
37856;BME280;23694;43.274;26.924;2022-08-07T00:45:40;98503.72;;;23.28;65.67
37856;BME280;23694;43.274;26.924;2022-08-07T00:48:07;98493.41;;;23.25;65.15
37856;BME280;23694;43.274;26.924;2022-08-07T00:50:33;98501.03;;;23.28;65.38
37856;BME280;23694;43.274;26.924;2022-08-07T00:53:00;98495.06;;;23.26;65.25
37856;BME280;23694;43.274;26.924;2022-08-07T00:55:27;98506.78;;;23.25;65.66
37856;BME280;23694;43.274;26.924;2022-08-07T00:57:54;98504.72;;;23.27;65.24
37856;BME280;23694;43.274;26.924;2022-08-07T01:00:21;98503.66;;;23.21;65.53
37856;BME280;23694;43.274;26.924;2022-08-07T01:02:47;98509.84;;;23.22;65.33
37856;BME280;23694;43.274;26.924;2022-08-07T01:05:14;98501.19;;;23.20;65.64
37856;BME280;23694;43.274;26.924;2022-08-07T01:07:41;98508.19;;;23.21;65.57
37856;BME280;23694;43.274;26.924;2022-08-07T01:10:07;98498.13;;;23.23;65.37
37856;BME280;23694;43.274;26.924;2022-08-07T01:12:35;98509.59;;;23.17;65.79
37856;BME280;23694;43.274;26.924;2022-08-07T01:15:02;98507.16;;;23.22;65.47
37856;BME280;23694;43.274;26.924;2022-08-07T01:17:28;98505.75;;;23.26;65.29
37856;BME280;23694;43.274;26.924;2022-08-07T01:20:05;98516.25;;;23.27;65.05
37856;BME280;23694;43.274;26.924;2022-08-07T01:22:32;98513.78;;;23.26;65.38
37856;BME280;23694;43.274;26.924;2022-08-07T01:24:59;98512.56;;;23.28;65.36
37856;BME280;23694;43.274;26.924;2022-08-07T01:27:25;98514.59;;;23.26;65.24
37856;BME280;23694;43.274;26.924;2022-08-07T01:29:52;98503.91;;;23.26;65.39
37856;BME280;23694;43.274;26.924;2022-08-07T01:32:18;98509.25;;;23.26;65.51
37856;BME280;23694;43.274;26.924;2022-08-07T01:34:44;98508.22;;;23.27;65.57
37856;BME280;23694;43.274;26.924;2022-08-07T01:37:11;98499.97;;;23.22;65.74
37856;BME280;23694;43.274;26.924;2022-08-07T01:39:43;98510.63;;;23.16;65.93
37856;BME280;23694;43.274;26.924;2022-08-07T01:42:15;98505.28;;;23.16;65.83
37856;BME280;23694;43.274;26.924;2022-08-07T01:44:41;98500.97;;;23.15;65.93
37856;BME280;23694;43.274;26.924;2022-08-07T01:47:08;98501.19;;;23.20;65.98
37856;BME280;23694;43.274;26.924;2022-08-07T01:49:35;98503.44;;;23.16;66.21
37856;BME280;23694;43.274;26.924;2022-08-07T01:52:02;98506.72;;;23.18;66.14
37856;BME280;23694;43.274;26.924;2022-08-07T01:54:35;98502.81;;;23.14;66.30
37856;BME280;23694;43.274;26.924;2022-08-07T01:57:08;98505.66;;;23.13;66.47
37856;BME280;23694;43.274;26.924;2022-08-07T01:59:43;98511.44;;;23.16;66.42
37856;BME280;23694;43.274;26.924;2022-08-07T02:02:16;98498.09;;;23.16;66.26
37856;BME280;23694;43.274;26.924;2022-08-07T02:04:50;98508.34;;;23.13;66.40
37856;BME280;23694;43.274;26.924;2022-08-07T02:07:19;98514.06;;;23.09;66.76
37856;BME280;23694;43.274;26.924;2022-08-07T02:09:50;98511.41;;;23.09;66.61
37856;BME280;23694;43.274;26.924;2022-08-07T02:12:19;98505.44;;;23.07;66.86
37856;BME280;23694;43.274;26.924;2022-08-07T02:14:48;98513.00;;;23.04;66.81
37856;BME280;23694;43.274;26.924;2022-08-07T02:17:17;98504.22;;;23.10;66.74
37856;BME280;23694;43.274;26.924;2022-08-07T02:19:45;98512.03;;;23.12;66.58
37856;BME280;23694;43.274;26.924;2022-08-07T02:22:13;98512.28;;;23.17;66.49
37856;BME280;23694;43.274;26.924;2022-08-07T02:24:42;98497.47;;;23.14;66.33
37856;BME280;23694;43.274;26.924;2022-08-07T02:27:11;98502.03;;;23.20;66.22
37856;BME280;23694;43.274;26.924;2022-08-07T02:29:40;98500.53;;;23.11;66.39
37856;BME280;23694;43.274;26.924;2022-08-07T02:32:08;98510.38;;;23.11;66.44
37856;BME280;23694;43.274;26.924;2022-08-07T02:34:36;98513.88;;;23.11;66.75
37856;BME280;23694;43.274;26.924;2022-08-07T02:37:04;98516.94;;;23.08;67.00
37856;BME280;23694;43.274;26.924;2022-08-07T02:39:35;98518.78;;;23.07;67.04
37856;BME280;23694;43.274;26.924;2022-08-07T02:42:04;98516.31;;;23.06;66.76
37856;BME280;23694;43.274;26.924;2022-08-07T02:44:31;98511.13;;;22.98;67.21
37856;BME280;23694;43.274;26.924;2022-08-07T02:46:59;98508.44;;;22.98;67.26
37856;BME280;23694;43.274;26.924;2022-08-07T02:49:27;98515.59;;;22.91;67.57
37856;BME280;23694;43.274;26.924;2022-08-07T02:51:54;98514.19;;;22.95;67.72
37856;BME280;23694;43.274;26.924;2022-08-07T02:54:23;98515.38;;;22.92;67.80
37856;BME280;23694;43.274;26.924;2022-08-07T02:56:52;98512.91;;;22.91;67.76
37856;BME280;23694;43.274;26.924;2022-08-07T02:59:23;98508.16;;;22.86;67.85
37856;BME280;23694;43.274;26.924;2022-08-07T03:01:51;98510.63;;;22.88;67.86
37856;BME280;23694;43.274;26.924;2022-08-07T03:04:18;98507.13;;;22.87;68.14
37856;BME280;23694;43.274;26.924;2022-08-07T03:06:46;98511.47;;;22.88;68.19
37856;BME280;23694;43.274;26.924;2022-08-07T03:09:13;98515.97;;;22.88;68.17
37856;BME280;23694;43.274;26.924;2022-08-07T03:11:40;98528.56;;;22.94;67.97
37856;BME280;23694;43.274;26.924;2022-08-07T03:14:07;98521.16;;;22.96;67.90
37856;BME280;23694;43.274;26.924;2022-08-07T03:16:34;98521.59;;;22.99;67.69
37856;BME280;23694;43.274;26.924;2022-08-07T03:19:01;98528.22;;;23.03;67.63
37856;BME280;23694;43.274;26.924;2022-08-07T03:21:28;98517.75;;;23.08;67.21
37856;BME280;23694;43.274;26.924;2022-08-07T03:23:56;98522.75;;;23.18;66.94
37856;BME280;23694;43.274;26.924;2022-08-07T03:26:27;98522.03;;;23.31;66.26
37856;BME280;23694;43.274;26.924;2022-08-07T03:28:55;98523.59;;;23.47;65.76
37856;BME280;23694;43.274;26.924;2022-08-07T03:31:22;98521.25;;;23.65;65.29
37856;BME280;23694;43.274;26.924;2022-08-07T03:33:57;98511.84;;;23.82;64.36
37856;BME280;23694;43.274;26.924;2022-08-07T03:36:25;98523.50;;;24.09;63.02
37856;BME280;23694;43.274;26.924;2022-08-07T03:38:56;98520.50;;;24.39;62.21
37856;BME280;23694;43.274;26.924;2022-08-07T03:41:24;98521.78;;;24.69;60.80
37856;BME280;23694;43.274;26.924;2022-08-07T03:43:51;98519.56;;;24.99;60.01
37856;BME280;23694;43.274;26.924;2022-08-07T03:46:19;98516.81;;;25.32;58.85
37856;BME280;23694;43.274;26.924;2022-08-07T03:48:46;98522.56;;;25.62;57.81
37856;BME280;23694;43.274;26.924;2022-08-07T03:51:12;98525.16;;;25.88;56.86
37856;BME280;23694;43.274;26.924;2022-08-07T03:53:39;98528.28;;;26.30;55.25
37856;BME280;23694;43.274;26.924;2022-08-07T03:56:06;98522.47;;;26.71;54.05
37856;BME280;23694;43.274;26.924;2022-08-07T03:58:33;98526.78;;;27.04;53.08
37856;BME280;23694;43.274;26.924;2022-08-07T04:01:00;98530.03;;;27.31;51.79
37856;BME280;23694;43.274;26.924;2022-08-07T04:03:28;98522.53;;;27.58;50.90
37856;BME280;23694;43.274;26.924;2022-08-07T04:05:54;98531.25;;;27.96;50.05
37856;BME280;23694;43.274;26.924;2022-08-07T04:08:21;98530.22;;;28.27;49.01
37856;BME280;23694;43.274;26.924;2022-08-07T04:10:47;98532.63;;;28.47;48.74
37856;BME280;23694;43.274;26.924;2022-08-07T04:13:14;98535.72;;;28.92;47.66
37856;BME280;23694;43.274;26.924;2022-08-07T04:15:41;98536.56;;;29.40;46.05
37856;BME280;23694;43.274;26.924;2022-08-07T04:18:13;98537.56;;;29.85;44.74
37856;BME280;23694;43.274;26.924;2022-08-07T04:20:40;98539.25;;;30.26;44.37
37856;BME280;23694;43.274;26.924;2022-08-07T04:23:06;98535.84;;;30.59;43.57
37856;BME280;23694;43.274;26.924;2022-08-07T04:25:35;98542.34;;;30.92;42.54
37856;BME280;23694;43.274;26.924;2022-08-07T04:28:06;98548.50;;;31.21;41.62
37856;BME280;23694;43.274;26.924;2022-08-07T04:30:33;98552.69;;;31.45;40.83
37856;BME280;23694;43.274;26.924;2022-08-07T04:33:05;98550.66;;;31.74;40.73
37856;BME280;23694;43.274;26.924;2022-08-07T04:35:31;98551.50;;;32.19;39.96
37856;BME280;23694;43.274;26.924;2022-08-07T04:37:58;98550.13;;;32.65;38.71
37856;BME280;23694;43.274;26.924;2022-08-07T04:40:24;98562.81;;;32.86;38.39
37856;BME280;23694;43.274;26.924;2022-08-07T04:42:50;98554.19;;;33.26;37.43
37856;BME280;23694;43.274;26.924;2022-08-07T04:45:17;98558.69;;;33.48;37.03
37856;BME280;23694;43.274;26.924;2022-08-07T04:48:01;98558.84;;;33.73;36.13
37856;BME280;23694;43.274;26.924;2022-08-07T04:50:45;98557.22;;;33.30;36.80
37856;BME280;23694;43.274;26.924;2022-08-07T04:55:54;98566.56;;;33.86;35.64
37856;BME280;23694;43.274;26.924;2022-08-07T05:01:23;98568.50;;;33.96;35.33
37856;BME280;23694;43.274;26.924;2022-08-07T05:06:34;98581.84;;;34.02;34.44
37856;BME280;23694;43.274;26.924;2022-08-07T05:11:33;98584.50;;;34.55;33.76
37856;BME280;23694;43.274;26.924;2022-08-07T05:14:05;98580.81;;;35.32;32.57
37856;BME280;23694;43.274;26.924;2022-08-07T05:16:36;98581.44;;;36.09;31.61
37856;BME280;23694;43.274;26.924;2022-08-07T05:19:08;98583.69;;;36.56;30.43
37856;BME280;23694;43.274;26.924;2022-08-07T05:21:36;98588.25;;;37.10;29.59
37856;BME280;23694;43.274;26.924;2022-08-07T05:24:07;98589.16;;;36.95;29.38
37856;BME280;23694;43.274;26.924;2022-08-07T05:26:35;98593.94;;;36.20;30.34
37856;BME280;23694;43.274;26.924;2022-08-07T05:29:05;98597.09;;;35.57;30.83
37856;BME280;23694;43.274;26.924;2022-08-07T05:31:34;98582.66;;;34.96;32.14
37856;BME280;23694;43.274;26.924;2022-08-07T05:34:05;98589.69;;;34.72;32.33
37856;BME280;23694;43.274;26.924;2022-08-07T05:36:33;98586.97;;;34.82;33.12
37856;BME280;23694;43.274;26.924;2022-08-07T05:39:01;98587.03;;;35.02;32.76
37856;BME280;23694;43.274;26.924;2022-08-07T05:41:28;98594.91;;;34.83;32.48
37856;BME280;23694;43.274;26.924;2022-08-07T05:43:55;98597.03;;;33.98;34.17
37856;BME280;23694;43.274;26.924;2022-08-07T05:46:23;98595.06;;;33.47;34.04
37856;BME280;23694;43.274;26.924;2022-08-07T05:48:51;98600.47;;;32.83;35.31
37856;BME280;23694;43.274;26.924;2022-08-07T05:51:18;98596.16;;;32.60;36.14
37856;BME280;23694;43.274;26.924;2022-08-07T05:53:45;98594.59;;;32.20;35.57
37856;BME280;23694;43.274;26.924;2022-08-07T05:56:12;98606.44;;;31.75;37.16
37856;BME280;23694;43.274;26.924;2022-08-07T05:58:40;98600.53;;;31.78;36.84
37856;BME280;23694;43.274;26.924;2022-08-07T06:01:09;98603.66;;;31.87;36.48
37856;BME280;23694;43.274;26.924;2022-08-07T06:03:38;98602.84;;;31.70;36.49
37856;BME280;23694;43.274;26.924;2022-08-07T06:06:05;98600.84;;;31.82;36.74
37856;BME280;23694;43.274;26.924;2022-08-07T06:08:32;98607.94;;;32.05;36.34
37856;BME280;23694;43.274;26.924;2022-08-07T06:10:58;98603.72;;;31.92;35.33
37856;BME280;23694;43.274;26.924;2022-08-07T06:13:25;98603.81;;;31.64;35.48
37856;BME280;23694;43.274;26.924;2022-08-07T06:15:53;98605.09;;;31.39;35.68
37856;BME280;23694;43.274;26.924;2022-08-07T06:18:20;98598.19;;;31.15;37.53
37856;BME280;23694;43.274;26.924;2022-08-07T06:20:47;98601.03;;;31.08;38.16
37856;BME280;23694;43.274;26.924;2022-08-07T06:23:13;98596.09;;;31.05;36.66
37856;BME280;23694;43.274;26.924;2022-08-07T06:25:40;98600.44;;;31.06;37.90
37856;BME280;23694;43.274;26.924;2022-08-07T06:28:08;98604.47;;;31.04;38.06
37856;BME280;23694;43.274;26.924;2022-08-07T06:30:36;98607.56;;;30.96;37.33
37856;BME280;23694;43.274;26.924;2022-08-07T06:33:03;98604.25;;;30.60;37.15
37856;BME280;23694;43.274;26.924;2022-08-07T06:35:30;98596.03;;;30.15;39.36
37856;BME280;23694;43.274;26.924;2022-08-07T06:37:57;98593.97;;;30.34;39.35
37856;BME280;23694;43.274;26.924;2022-08-07T06:40:23;98603.31;;;30.43;38.43
37856;BME280;23694;43.274;26.924;2022-08-07T06:42:50;98599.16;;;30.52;38.53
37856;BME280;23694;43.274;26.924;2022-08-07T06:45:20;98596.94;;;30.49;37.82
37856;BME280;23694;43.274;26.924;2022-08-07T06:47:47;98602.00;;;30.45;38.82
37856;BME280;23694;43.274;26.924;2022-08-07T06:50:14;98602.69;;;30.64;38.41
37856;BME280;23694;43.274;26.924;2022-08-07T06:52:47;98603.31;;;30.83;37.37
37856;BME280;23694;43.274;26.924;2022-08-07T06:55:27;98603.22;;;30.78;37.34
37856;BME280;23694;43.274;26.924;2022-08-07T06:58:00;98605.19;;;30.82;36.83
37856;BME280;23694;43.274;26.924;2022-08-07T07:00:31;98599.44;;;30.79;37.10
37856;BME280;23694;43.274;26.924;2022-08-07T07:02:58;98604.03;;;30.78;37.06
37856;BME280;23694;43.274;26.924;2022-08-07T07:05:25;98603.63;;;30.86;36.58
37856;BME280;23694;43.274;26.924;2022-08-07T07:07:51;98611.28;;;31.06;36.29
37856;BME280;23694;43.274;26.924;2022-08-07T07:10:26;98609.06;;;31.03;36.48
37856;BME280;23694;43.274;26.924;2022-08-07T07:12:56;98612.53;;;31.15;36.07
37856;BME280;23694;43.274;26.924;2022-08-07T07:15:35;98609.59;;;31.34;35.36
37856;BME280;23694;43.274;26.924;2022-08-07T07:18:39;98621.22;;;31.51;35.45
37856;BME280;23694;43.274;26.924;2022-08-07T07:21:02;98609.97;;;31.09;36.65
37856;BME280;23694;43.274;26.924;2022-08-07T07:23:30;98602.41;;;31.23;35.77
37856;BME280;23694;43.274;26.924;2022-08-07T07:26:02;98619.81;;;31.65;35.44
37856;BME280;23694;43.274;26.924;2022-08-07T07:28:41;98612.53;;;31.49;35.50
37856;BME280;23694;43.274;26.924;2022-08-07T07:31:19;98615.00;;;31.17;36.36
37856;BME280;23694;43.274;26.924;2022-08-07T07:33:51;98614.66;;;30.68;36.75
37856;BME280;23694;43.274;26.924;2022-08-07T07:36:21;98599.88;;;30.87;36.97
37856;BME280;23694;43.274;26.924;2022-08-07T07:38:48;98613.59;;;30.69;36.86
37856;BME280;23694;43.274;26.924;2022-08-07T07:41:16;98608.75;;;30.31;38.03
37856;BME280;23694;43.274;26.924;2022-08-07T07:43:45;98607.53;;;30.62;37.71
37856;BME280;23694;43.274;26.924;2022-08-07T07:46:14;98615.84;;;30.89;37.34
37856;BME280;23694;43.274;26.924;2022-08-07T07:48:41;98603.53;;;30.65;37.64
37856;BME280;23694;43.274;26.924;2022-08-07T07:51:08;98609.13;;;31.08;37.07
37856;BME280;23694;43.274;26.924;2022-08-07T07:53:42;98614.69;;;31.47;36.67
37856;BME280;23694;43.274;26.924;2022-08-07T07:56:12;98609.56;;;31.67;36.46
37856;BME280;23694;43.274;26.924;2022-08-07T07:58:38;98616.78;;;31.78;35.47
37856;BME280;23694;43.274;26.924;2022-08-07T08:01:07;98618.59;;;31.73;36.10
37856;BME280;23694;43.274;26.924;2022-08-07T08:03:36;98614.84;;;31.24;36.23
37856;BME280;23694;43.274;26.924;2022-08-07T08:06:05;98613.94;;;31.18;36.55
37856;BME280;23694;43.274;26.924;2022-08-07T08:08:33;98615.84;;;31.06;36.82
37856;BME280;23694;43.274;26.924;2022-08-07T08:11:00;98611.50;;;31.05;36.52
37856;BME280;23694;43.274;26.924;2022-08-07T08:13:28;98606.06;;;30.71;37.35
37856;BME280;23694;43.274;26.924;2022-08-07T08:15:57;98605.16;;;30.66;37.61
37856;BME280;23694;43.274;26.924;2022-08-07T08:18:27;98611.28;;;30.61;36.16
37856;BME280;23694;43.274;26.924;2022-08-07T08:20:56;98608.34;;;30.51;37.07
37856;BME280;23694;43.274;26.924;2022-08-07T08:23:25;98607.06;;;30.82;36.83
37856;BME280;23694;43.274;26.924;2022-08-07T08:26:13;98614.28;;;31.21;36.46
37856;BME280;23694;43.274;26.924;2022-08-07T08:29:00;98603.03;;;31.46;34.66
37856;BME280;23694;43.274;26.924;2022-08-07T08:31:29;98600.28;;;31.13;34.24
37856;BME280;23694;43.274;26.924;2022-08-07T08:34:00;98606.75;;;31.12;34.07
37856;BME280;23694;43.274;26.924;2022-08-07T08:36:29;98606.94;;;31.05;33.51
37856;BME280;23694;43.274;26.924;2022-08-07T08:38:58;98590.00;;;30.65;33.34
37856;BME280;23694;43.274;26.924;2022-08-07T08:44:20;98599.13;;;30.35;33.30
37856;BME280;23694;43.274;26.924;2022-08-07T08:46:55;98599.59;;;30.72;32.80
37856;BME280;23694;43.274;26.924;2022-08-07T08:52:10;98596.47;;;30.64;33.38
37856;BME280;23694;43.274;26.924;2022-08-07T08:57:31;98587.50;;;30.91;32.19
37856;BME280;23694;43.274;26.924;2022-08-07T09:00:06;98600.19;;;30.91;32.21
37856;BME280;23694;43.274;26.924;2022-08-07T09:02:58;98596.34;;;30.87;32.74
37856;BME280;23694;43.274;26.924;2022-08-07T09:08:31;98597.88;;;31.45;31.74
37856;BME280;23694;43.274;26.924;2022-08-07T09:11:18;98591.41;;;31.68;31.42
37856;BME280;23694;43.274;26.924;2022-08-07T09:19:44;98585.00;;;31.35;31.22
37856;BME280;23694;43.274;26.924;2022-08-07T09:30:28;98594.88;;;31.63;29.83
37856;BME280;23694;43.274;26.924;2022-08-07T09:35:53;98585.47;;;32.04;29.27
37856;BME280;23694;43.274;26.924;2022-08-07T09:38:50;98585.22;;;32.28;28.88
37856;BME280;23694;43.274;26.924;2022-08-07T09:41:45;98583.13;;;32.57;29.72
37856;BME280;23694;43.274;26.924;2022-08-07T09:52:47;98595.72;;;32.46;28.44
37856;BME280;23694;43.274;26.924;2022-08-07T10:03:34;98596.16;;;31.22;31.34
37856;BME280;23694;43.274;26.924;2022-08-07T10:12:09;98582.91;;;31.76;31.88
37856;BME280;23694;43.274;26.924;2022-08-07T10:22:57;98559.25;;;31.88;31.31
37856;BME280;23694;43.274;26.924;2022-08-07T10:25:42;98569.25;;;31.32;32.29
37856;BME280;23694;43.274;26.924;2022-08-07T10:39:17;98548.97;;;32.34;31.86
37856;BME280;23694;43.274;26.924;2022-08-07T10:45:00;98558.13;;;32.06;31.25
37856;BME280;23694;43.274;26.924;2022-08-07T10:52:44;98553.16;;;31.98;31.71
37856;BME280;23694;43.274;26.924;2022-08-07T10:58:19;98546.84;;;32.14;30.68
37856;BME280;23694;43.274;26.924;2022-08-07T11:00:57;98550.41;;;32.20;30.64
37856;BME280;23694;43.274;26.924;2022-08-07T11:03:41;98546.06;;;32.40;30.38
37856;BME280;23694;43.274;26.924;2022-08-07T11:06:17;98549.34;;;32.42;29.87
37856;BME280;23694;43.274;26.924;2022-08-07T11:09:12;98541.03;;;31.83;31.58
37856;BME280;23694;43.274;26.924;2022-08-07T11:11:48;98534.06;;;31.88;32.04
37856;BME280;23694;43.274;26.924;2022-08-07T11:14:40;98537.41;;;31.95;31.10
37856;BME280;23694;43.274;26.924;2022-08-07T11:17:25;98548.34;;;31.66;31.51
37856;BME280;23694;43.274;26.924;2022-08-07T11:20:00;98536.56;;;31.72;32.25
37856;BME280;23694;43.274;26.924;2022-08-07T11:28:22;98537.44;;;32.22;31.61
37856;BME280;23694;43.274;26.924;2022-08-07T11:30:52;98528.75;;;31.76;31.51
37856;BME280;23694;43.274;26.924;2022-08-07T11:33:27;98538.53;;;31.60;31.72
37856;BME280;23694;43.274;26.924;2022-08-07T11:38:39;98517.66;;;32.48;31.30
37856;BME280;23694;43.274;26.924;2022-08-07T11:41:12;98526.69;;;32.81;31.16
37856;BME280;23694;43.274;26.924;2022-08-07T11:49:51;98546.75;;;31.48;32.46
37856;BME280;23694;43.274;26.924;2022-08-07T11:58:04;98532.69;;;31.30;32.25
37856;BME280;23694;43.274;26.924;2022-08-07T12:00:44;98549.47;;;31.48;31.85
37856;BME280;23694;43.274;26.924;2022-08-07T12:06:36;98538.00;;;31.41;31.54
37856;BME280;23694;43.274;26.924;2022-08-07T12:09:21;98525.16;;;31.70;31.56
37856;BME280;23694;43.274;26.924;2022-08-07T12:12:04;98519.75;;;31.92;30.70
37856;BME280;23694;43.274;26.924;2022-08-07T12:14:46;98536.97;;;31.64;30.89
37856;BME280;23694;43.274;26.924;2022-08-07T12:17:16;98548.56;;;31.43;29.41
37856;BME280;23694;43.274;26.924;2022-08-07T12:19:54;98564.91;;;31.31;30.48
37856;BME280;23694;43.274;26.924;2022-08-07T12:22:34;98578.06;;;30.77;34.33
37856;BME280;23694;43.274;26.924;2022-08-07T12:28:13;98615.19;;;29.55;37.74
37856;BME280;23694;43.274;26.924;2022-08-07T12:30:43;98577.22;;;29.15;38.06
37856;BME280;23694;43.274;26.924;2022-08-07T12:33:13;98564.00;;;28.71;39.66
37856;BME280;23694;43.274;26.924;2022-08-07T12:35:48;98555.78;;;28.66;41.21
37856;BME280;23694;43.274;26.924;2022-08-07T12:38:16;98550.06;;;28.45;42.88
37856;BME280;23694;43.274;26.924;2022-08-07T12:40:45;98547.72;;;28.18;45.42
37856;BME280;23694;43.274;26.924;2022-08-07T12:43:13;98565.25;;;28.27;45.74
37856;BME280;23694;43.274;26.924;2022-08-07T12:46:07;98557.00;;;28.52;45.88
37856;BME280;23694;43.274;26.924;2022-08-07T12:48:50;98554.66;;;28.44;46.33
37856;BME280;23694;43.274;26.924;2022-08-07T12:51:24;98553.13;;;28.78;45.28
37856;BME280;23694;43.274;26.924;2022-08-07T12:54:05;98550.88;;;29.40;42.89
37856;BME280;23694;43.274;26.924;2022-08-07T12:56:40;98547.22;;;29.81;42.33
37856;BME280;23694;43.274;26.924;2022-08-07T12:59:10;98550.72;;;29.93;41.59
37856;BME280;23694;43.274;26.924;2022-08-07T13:02:01;98550.19;;;30.20;40.80
37856;BME280;23694;43.274;26.924;2022-08-07T13:08:00;98552.66;;;30.21;41.18
37856;BME280;23694;43.274;26.924;2022-08-07T13:10:48;98548.28;;;30.32;41.42
37856;BME280;23694;43.274;26.924;2022-08-07T13:19:38;98549.56;;;30.58;41.17
37856;BME280;23694;43.274;26.924;2022-08-07T13:21:51;98530.47;;;30.19;42.34
37856;BME280;23694;43.274;26.924;2022-08-07T13:27:12;98529.78;;;30.12;42.19
37856;BME280;23694;43.274;26.924;2022-08-07T13:29:59;98527.34;;;29.99;42.17
37856;BME280;23694;43.274;26.924;2022-08-07T13:32:52;98525.44;;;30.11;41.46
37856;BME280;23694;43.274;26.924;2022-08-07T13:35:43;98527.81;;;30.36;40.04
37856;BME280;23694;43.274;26.924;2022-08-07T13:38:26;98518.13;;;30.23;41.27
37856;BME280;23694;43.274;26.924;2022-08-07T13:41:14;98515.22;;;30.13;40.79
37856;BME280;23694;43.274;26.924;2022-08-07T13:43:47;98516.31;;;30.57;40.21
37856;BME280;23694;43.274;26.924;2022-08-07T13:46:16;98521.28;;;30.77;37.81
37856;BME280;23694;43.274;26.924;2022-08-07T13:48:45;98523.56;;;30.69;38.36
37856;BME280;23694;43.274;26.924;2022-08-07T13:51:14;98517.69;;;30.72;37.29
37856;BME280;23694;43.274;26.924;2022-08-07T13:53:41;98513.91;;;30.73;37.57
37856;BME280;23694;43.274;26.924;2022-08-07T13:56:16;98514.81;;;30.62;37.18
37856;BME280;23694;43.274;26.924;2022-08-07T13:58:44;98518.66;;;30.82;36.66
37856;BME280;23694;43.274;26.924;2022-08-07T14:01:34;98511.00;;;31.13;35.94
37856;BME280;23694;43.274;26.924;2022-08-07T14:04:15;98508.41;;;31.18;35.38
37856;BME280;23694;43.274;26.924;2022-08-07T14:06:44;98510.63;;;31.38;35.45
37856;BME280;23694;43.274;26.924;2022-08-07T14:09:22;98521.34;;;31.49;35.02
37856;BME280;23694;43.274;26.924;2022-08-07T14:11:52;98519.16;;;30.96;34.91
37856;BME280;23694;43.274;26.924;2022-08-07T14:14:29;98515.06;;;30.77;35.50
37856;BME280;23694;43.274;26.924;2022-08-07T14:16:59;98516.63;;;30.73;35.37
37856;BME280;23694;43.274;26.924;2022-08-07T14:19:35;98511.69;;;30.70;35.73
37856;BME280;23694;43.274;26.924;2022-08-07T14:22:04;98510.53;;;30.66;35.52
37856;BME280;23694;43.274;26.924;2022-08-07T14:24:36;98506.69;;;30.78;35.61
37856;BME280;23694;43.274;26.924;2022-08-07T14:27:07;98511.19;;;30.89;35.04
37856;BME280;23694;43.274;26.924;2022-08-07T14:29:40;98509.72;;;31.15;35.15
37856;BME280;23694;43.274;26.924;2022-08-07T14:32:09;98511.13;;;31.35;34.93
37856;BME280;23694;43.274;26.924;2022-08-07T14:34:40;98521.75;;;31.41;34.25
37856;BME280;23694;43.274;26.924;2022-08-07T14:37:08;98512.50;;;31.37;34.57
37856;BME280;23694;43.274;26.924;2022-08-07T14:39:38;98503.72;;;31.47;34.51
37856;BME280;23694;43.274;26.924;2022-08-07T14:42:07;98503.16;;;31.67;34.35
37856;BME280;23694;43.274;26.924;2022-08-07T14:44:39;98504.88;;;31.73;33.88
37856;BME280;23694;43.274;26.924;2022-08-07T14:47:10;98493.13;;;31.67;33.29
37856;BME280;23694;43.274;26.924;2022-08-07T14:49:37;98501.00;;;31.69;33.07
37856;BME280;23694;43.274;26.924;2022-08-07T14:52:05;98504.06;;;31.72;32.89
37856;BME280;23694;43.274;26.924;2022-08-07T14:54:35;98494.56;;;31.70;33.06
37856;BME280;23694;43.274;26.924;2022-08-07T14:57:04;98498.19;;;31.59;32.18
37856;BME280;23694;43.274;26.924;2022-08-07T14:59:35;98493.91;;;31.63;30.88
37856;BME280;23694;43.274;26.924;2022-08-07T15:02:09;98499.19;;;31.52;29.86
37856;BME280;23694;43.274;26.924;2022-08-07T15:04:39;98493.69;;;31.47;29.43
37856;BME280;23694;43.274;26.924;2022-08-07T15:07:07;98495.59;;;31.47;27.59
37856;BME280;23694;43.274;26.924;2022-08-07T15:09:39;98500.50;;;31.50;27.37
37856;BME280;23694;43.274;26.924;2022-08-07T15:12:12;98494.34;;;31.54;26.99
37856;BME280;23694;43.274;26.924;2022-08-07T15:14:48;98502.44;;;31.54;26.41
37856;BME280;23694;43.274;26.924;2022-08-07T15:17:18;98483.75;;;31.53;26.37
37856;BME280;23694;43.274;26.924;2022-08-07T15:19:50;98492.75;;;31.59;26.33
37856;BME280;23694;43.274;26.924;2022-08-07T15:22:17;98495.97;;;31.56;25.85